Time;durP1;ratioP1;P1;durP2;ratioP2;P2;SDS_P1;SDS_P2;PMS_P1;PMS_P2;Temp;Humidity;BMP_temperature;BMP_pressure;BME280_temperature;BME280_humidity;BME280_pressure;Samples;Min_cycle;Max_cycle;Signal;HPM_P1;HPM_P2
2023/05/10 00:01:21;;;;;;;33.05;14.13;;;12.70;99.90;;;;;;5054634;28;20542;-77
2023/05/10 00:03:47;;;;;;;28.92;12.95;;;12.70;99.90;;;;;;5054440;28;20055;-77
2023/05/10 00:06:12;;;;;;;32.78;14.65;;;13.40;99.90;;;;;;5052532;28;20055;-77
2023/05/10 00:08:38;;;;;;;29.10;12.43;;;12.60;99.90;;;;;;5054320;28;20049;-77
2023/05/10 00:11:04;;;;;;;32.03;13.23;;;12.60;99.90;;;;;;5052857;28;20013;-77
2023/05/10 00:13:29;;;;;;;30.98;13.25;;;12.60;99.90;;;;;;5054564;28;20021;-77
2023/05/10 00:15:55;;;;;;;35.80;13.85;;;12.60;99.90;;;;;;5053909;28;20021;-76
2023/05/10 00:18:20;;;;;;;38.95;16.23;;;12.60;99.90;;;;;;5054024;28;20056;-77
2023/05/10 00:20:46;;;;;;;29.92;13.80;;;12.60;99.90;;;;;;5053891;28;20036;-77
2023/05/10 00:23:12;;;;;;;40.17;15.48;;;12.70;99.90;;;;;;5054135;28;20025;-77
2023/05/10 00:25:37;;;;;;;40.25;16.55;;;12.50;99.90;;;;;;5054736;28;20484;-77
2023/05/10 00:28:03;;;;;;;35.33;14.77;;;13.10;99.90;;;;;;5052693;28;20052;-76
2023/05/10 00:30:29;;;;;;;35.40;14.77;;;12.50;99.90;;;;;;5053779;28;20033;-77
2023/05/10 00:32:54;;;;;;;38.97;16.17;;;12.50;99.90;;;;;;5053942;28;20095;-76
2023/05/10 00:35:21;;;;;;;37.35;15.95;;;12.50;99.90;;;;;;5053740;28;20046;-77
2023/05/10 00:37:47;;;;;;;41.20;16.27;;;12.50;99.90;;;;;;5052450;28;20039;-77
2023/05/10 00:40:12;;;;;;;36.53;15.85;;;12.50;99.90;;;;;;5054405;28;20108;-77
2023/05/10 00:42:38;;;;;;;32.03;15.65;;;12.50;99.90;;;;;;5053808;28;20060;-78
2023/05/10 00:45:04;;;;;;;39.10;15.82;;;12.50;99.90;;;;;;5053889;28;20048;-77
2023/05/10 00:47:31;;;;;;;36.20;16.85;;;12.50;99.90;;;;;;5053782;28;20732;-77
2023/05/10 00:49:57;;;;;;;40.65;15.82;;;12.90;99.90;;;;;;5053891;28;20021;-77
2023/05/10 00:52:23;;;;;;;46.75;16.63;;;12.50;99.90;;;;;;5052289;28;20032;-77
2023/05/10 00:54:51;;;;;;;33.15;14.88;;;12.50;99.90;;;;;;5054342;28;20021;-77
2023/05/10 00:57:17;;;;;;;41.78;16.42;;;12.50;99.90;;;;;;5052505;28;20031;-77
2023/05/10 00:59:42;;;;;;;39.33;16.08;;;13.00;99.90;;;;;;5053552;28;20021;-77
2023/05/10 01:02:08;;;;;;;42.25;15.98;;;12.50;99.90;;;;;;5053648;28;20025;-76
2023/05/10 01:04:35;;;;;;;39.80;15.05;;;12.50;99.90;;;;;;5054320;28;20037;-78
2023/05/10 01:07:01;;;;;;;42.05;15.90;;;12.60;99.90;;;;;;5053486;28;20129;-76
2023/05/10 01:09:27;;;;;;;49.97;17.33;;;12.60;99.90;;;;;;5052151;28;20503;-77
2023/05/10 01:11:53;;;;;;;42.15;15.60;;;12.60;99.90;;;;;;5053503;28;20099;-77
2023/05/10 01:14:20;;;;;;;42.38;15.65;;;12.60;99.90;;;;;;5053620;28;20096;-77
2023/05/10 01:16:48;;;;;;;45.78;16.83;;;12.60;99.90;;;;;;5053560;28;20392;-77
2023/05/10 01:19:29;;;;;;;51.43;17.13;;;12.60;99.90;;;;;;5057118;28;20075;-77
2023/05/10 01:22:16;;;;;;;50.75;16.67;;;12.70;99.90;;;;;;5057189;28;20100;-77
2023/05/10 01:25:19;;;;;;;51.92;17.20;;;12.80;99.90;;;;;;5057221;28;20021;-77
2023/05/10 01:27:58;;;;;;;49.03;18.13;;;12.80;99.90;;;;;;5057199;28;20500;-78
2023/05/10 01:30:30;;;;;;;;;;;12.80;99.90;;;;;;5057502;28;20033;-77
2023/05/10 01:33:09;;;;;;;51.63;16.20;;;12.80;99.90;;;;;;5055586;28;20427;-77
2023/05/10 01:35:50;;;;;;;48.00;16.70;;;12.80;99.90;;;;;;5057475;28;20377;-77
2023/05/10 01:38:38;;;;;;;46.78;16.65;;;12.80;99.90;;;;;;5056810;28;20028;-76
2023/05/10 01:41:10;;;;;;;44.05;15.25;;;12.80;99.90;;;;;;5056822;28;20029;-77
2023/05/10 01:44:12;;;;;;;45.88;15.40;;;12.80;99.90;;;;;;5056572;28;20413;-77
2023/05/10 01:46:40;;;;;;;44.22;16.42;;;12.80;99.90;;;;;;5056963;28;20025;-77
2023/05/10 01:49:11;;;;;;;47.92;17.00;;;12.80;99.90;;;;;;5056938;28;20029;-77
2023/05/10 01:51:48;;;;;;;43.72;15.88;;;12.70;99.90;;;;;;5056829;28;20036;-77
2023/05/10 01:54:19;;;;;;;43.97;15.45;;;12.70;99.90;;;;;;5056719;28;20029;-77
2023/05/10 01:56:47;;;;;;;51.83;16.63;;;13.40;99.90;;;;;;5055308;28;20013;-77
2023/05/10 01:59:18;;;;;;;60.50;17.98;;;12.60;99.90;;;;;;5056251;28;20027;-76
2023/05/10 02:01:45;;;;;;;55.80;18.23;;;12.60;99.90;;;;;;5056799;28;20025;-77
2023/05/10 02:04:14;;;;;;;55.92;17.40;;;12.60;99.90;;;;;;5055159;28;20456;-75
2023/05/10 02:06:41;;;;;;;53.28;15.98;;;12.50;99.90;;;;;;5056459;28;20502;-76
2023/05/10 02:09:08;;;;;;;54.88;17.92;;;12.50;99.90;;;;;;5056485;28;20032;-77
2023/05/10 02:11:37;;;;;;;57.83;17.83;;;12.50;99.90;;;;;;5056199;28;20472;-77
2023/05/10 02:14:04;;;;;;;60.75;17.20;;;12.50;99.90;;;;;;5056164;28;20022;-77
2023/05/10 02:16:31;;;;;;;60.30;18.13;;;12.40;99.90;;;;;;5056130;28;20032;-76
2023/05/10 02:18:58;;;;;;;58.35;17.60;;;12.40;99.90;;;;;;5055797;28;20028;-77
2023/05/10 02:21:25;;;;;;;64.47;16.42;;;12.50;99.90;;;;;;5055959;28;20480;-77
2023/05/10 02:23:53;;;;;;;56.28;16.70;;;12.40;99.90;;;;;;5054724;28;20024;-77
2023/05/10 02:26:21;;;;;;;54.88;17.08;;;12.40;99.90;;;;;;5054767;28;20021;-77
2023/05/10 02:28:48;;;;;;;77.05;19.23;;;12.30;99.90;;;;;;5055803;28;20432;-77
2023/05/10 02:31:15;;;;;;;76.60;19.20;;;12.30;99.90;;;;;;5055619;28;20029;-77
2023/05/10 02:33:42;;;;;;;65.55;19.10;;;12.30;99.90;;;;;;5055925;28;20025;-77
2023/05/10 02:36:10;;;;;;;88.53;21.13;;;12.30;99.90;;;;;;5055919;28;20036;-77
2023/05/10 02:38:36;;;;;;;72.72;19.67;;;12.30;99.90;;;;;;5055993;28;20024;-75
2023/05/10 02:41:05;;;;;;;69.68;18.65;;;12.30;99.90;;;;;;5056399;28;20028;-75
2023/05/10 02:43:33;;;;;;;80.72;20.40;;;12.60;99.90;;;;;;5056533;28;20021;-76
2023/05/10 02:45:58;;;;;;;77.80;19.70;;;12.30;99.90;;;;;;5054412;28;20447;-76
2023/05/10 02:48:24;;;;;;;75.50;20.67;;;12.60;99.90;;;;;;5055382;28;20036;-77
2023/05/10 02:50:53;;;;;;;70.82;21.45;;;12.30;99.90;;;;;;5055869;28;20031;-77
2023/05/10 02:53:23;;;;;;;67.97;20.30;;;12.30;99.90;;;;;;5054230;28;20384;-76
2023/05/10 02:55:52;;;;;;;67.22;21.40;;;12.70;99.90;;;;;;5053977;28;20067;-77
2023/05/10 02:58:19;;;;;;;62.92;19.60;;;12.40;99.90;;;;;;5055454;28;20021;-77
2023/05/10 03:00:46;;;;;;;65.38;21.95;;;12.40;99.90;;;;;;5055298;28;20021;-76
2023/05/10 03:03:11;;;;;;;62.22;20.23;;;12.40;99.90;;;;;;5055218;28;20025;-76
2023/05/10 03:05:37;;;;;;;63.55;20.65;;;12.40;99.90;;;;;;5054186;28;20442;-77
2023/05/10 03:08:04;;;;;;;65.50;21.90;;;12.40;99.90;;;;;;5055119;28;20112;-77
2023/05/10 03:10:30;;;;;;;63.80;20.73;;;12.40;99.90;;;;;;5055118;28;20074;-77
2023/05/10 03:13:20;;;;;;;61.05;19.23;;;12.40;99.90;;;;;;5055174;28;20025;-76
2023/05/10 03:15:55;;;;;;;72.50;20.98;;;12.30;99.90;;;;;;5055115;28;20480;-77
2023/05/10 03:19:13;;;;;;;78.72;20.98;;;12.30;99.90;;;;;;5053906;28;20546;-76
2023/05/10 03:21:44;;;;;;;75.97;23.25;;;12.30;99.90;;;;;;5053627;28;20033;-77
2023/05/10 03:24:12;;;;;;;68.78;21.60;;;12.50;99.90;;;;;;5055062;28;20021;-77
2023/05/10 03:26:39;;;;;;;73.57;21.55;;;12.40;99.90;;;;;;5055033;28;20388;-76
2023/05/10 03:29:07;;;;;;;71.47;22.00;;;12.40;99.90;;;;;;5054840;28;20021;-77
2023/05/10 03:31:33;;;;;;;77.57;21.33;;;12.40;99.90;;;;;;5054596;28;20373;-77
2023/05/10 03:33:58;;;;;;;70.18;20.70;;;12.40;99.90;;;;;;5055270;28;20020;-77
2023/05/10 03:36:24;;;;;;;76.95;22.10;;;12.40;99.90;;;;;;5055310;28;20032;-77
2023/05/10 03:38:49;;;;;;;66.93;20.23;;;12.40;99.90;;;;;;5053569;28;20021;-77
2023/05/10 03:41:15;;;;;;;69.90;22.23;;;12.40;99.90;;;;;;5052880;28;20020;-77
2023/05/10 03:43:41;;;;;;;78.07;22.35;;;12.60;99.90;;;;;;5055372;28;20033;-77
2023/05/10 03:46:06;;;;;;;79.10;22.83;;;12.80;99.90;;;;;;5055020;28;20031;-77
2023/05/10 03:48:32;;;;;;;67.85;20.65;;;12.40;99.90;;;;;;5053588;28;20435;-78
2023/05/10 03:50:58;;;;;;;68.82;20.33;;;12.50;99.90;;;;;;5055073;28;20024;-77
2023/05/10 03:53:24;;;;;;;71.18;22.67;;;12.40;99.90;;;;;;5055206;28;20458;-78
2023/05/10 03:55:49;;;;;;;84.82;24.50;;;12.50;99.90;;;;;;5054729;28;20092;-77
2023/05/10 03:58:15;;;;;;;72.57;20.40;;;12.50;99.90;;;;;;5054335;28;20029;-78
2023/05/10 04:00:43;;;;;;;76.85;22.80;;;12.70;99.90;;;;;;5053283;28;20060;-77
2023/05/10 04:03:12;;;;;;;72.30;22.08;;;12.50;99.90;;;;;;5054685;28;20024;-77
2023/05/10 04:05:38;;;;;;;76.53;21.45;;;12.50;99.90;;;;;;5053457;28;20476;-77
2023/05/10 04:08:05;;;;;;;64.63;20.20;;;12.40;99.90;;;;;;5054415;28;20031;-77
2023/05/10 04:10:30;;;;;;;66.50;20.40;;;12.50;99.90;;;;;;5054724;28;20017;-77
2023/05/10 04:12:56;;;;;;;58.97;19.85;;;12.40;99.90;;;;;;5053999;28;20028;-76
2023/05/10 04:15:22;;;;;;;71.93;20.15;;;12.40;99.90;;;;;;5054049;28;20100;-77
2023/05/10 04:17:47;;;;;;;62.67;20.00;;;12.50;99.90;;;;;;5054467;28;20029;-77
2023/05/10 04:20:13;;;;;;;69.47;20.73;;;12.50;99.90;;;;;;5054083;28;20025;-77
2023/05/10 04:22:39;;;;;;;65.35;21.77;;;12.50;99.90;;;;;;5053925;28;20391;-77
2023/05/10 04:25:05;;;;;;;60.40;19.58;;;12.50;99.90;;;;;;5052465;28;20013;-77
2023/05/10 04:27:30;;;;;;;63.50;21.98;;;12.50;99.90;;;;;;5053882;28;20033;-76
2023/05/10 04:29:57;;;;;;;63.88;18.67;;;;;;;;;;5053957;28;20052;-77
2023/05/10 04:32:22;;;;;;;62.33;19.13;;;12.50;99.90;;;;;;5054260;28;20036;-77
2023/05/10 04:34:48;;;;;;;51.17;17.90;;;12.50;99.90;;;;;;5054224;28;20013;-77
2023/05/10 04:37:14;;;;;;;57.03;19.73;;;12.60;99.90;;;;;;5053169;28;20017;-77
2023/05/10 04:39:39;;;;;;;59.05;18.67;;;12.60;99.90;;;;;;5053846;28;20029;-77
2023/05/10 04:42:05;;;;;;;53.10;17.70;;;12.50;99.90;;;;;;5053937;28;20075;-77
2023/05/10 04:44:31;;;;;;;57.85;18.30;;;12.50;99.90;;;;;;5053946;28;20032;-78
2023/05/10 04:46:57;;;;;;;53.50;18.50;;;12.50;99.90;;;;;;5054183;28;20032;-77
2023/05/10 04:49:23;;;;;;;54.58;20.02;;;12.50;99.90;;;;;;5053905;28;20052;-77
2023/05/10 04:51:48;;;;;;;51.90;18.50;;;12.60;99.90;;;;;;5053884;28;20083;-76
2023/05/10 04:54:14;;;;;;;48.53;18.52;;;12.60;99.90;;;;;;5057999;28;20017;-77
2023/05/10 04:56:40;;;;;;;55.67;18.45;;;12.60;99.90;;;;;;5057391;28;20534;-77
2023/05/10 04:59:06;;;;;;;53.25;18.42;;;12.60;99.90;;;;;;5057270;28;20119;-77
2023/05/10 05:01:32;;;;;;;51.88;19.77;;;12.90;99.90;;;;;;5057400;28;20088;-77
2023/05/10 05:03:58;;;;;;;60.60;20.52;;;12.70;99.90;;;;;;5057343;28;20032;-77
2023/05/10 05:06:24;;;;;;;55.67;18.83;;;13.40;99.90;;;;;;5056650;28;20038;-77
2023/05/10 05:08:50;;;;;;;50.83;19.38;;;12.70;99.90;;;;;;5057468;28;20017;-77
2023/05/10 05:11:17;;;;;;;58.97;19.05;;;12.70;99.90;;;;;;5056553;28;20431;-76
2023/05/10 05:13:43;;;;;;;65.38;19.33;;;12.70;99.90;;;;;;5056931;28;20476;-77
2023/05/10 05:16:08;;;;;;;57.40;19.25;;;12.90;99.90;;;;;;5057043;28;20028;-77
2023/05/10 05:18:34;;;;;;;54.63;20.13;;;12.70;99.90;;;;;;5056707;28;20488;-77
2023/05/10 05:21:00;;;;;;;59.00;18.45;;;12.70;99.90;;;;;;5056631;28;20096;-77
2023/05/10 05:23:26;;;;;;;60.83;19.58;;;12.70;99.90;;;;;;5056560;28;20025;-77
2023/05/10 05:25:55;;;;;;;45.30;16.15;;;12.70;99.90;;;;;;5056710;28;20070;-77
2023/05/10 05:28:20;;;;;;;;;;;12.70;99.90;;;;;;5056060;28;20028;-77
2023/05/10 05:30:46;;;;;;;40.55;15.82;;;12.70;99.90;;;;;;5054957;28;19916;-76
2023/05/10 05:33:13;;;;;;;41.13;15.15;;;;;;;;;;5055142;28;20550;-76
2023/05/10 05:35:39;;;;;;;46.05;17.10;;;12.70;99.90;;;;;;5057056;28;20025;-77
2023/05/10 05:38:05;;;;;;;41.70;15.50;;;12.60;99.90;;;;;;5057064;28;20488;-77
2023/05/10 05:40:30;;;;;;;51.15;16.50;;;12.60;99.90;;;;;;5056325;28;20024;-77
2023/05/10 05:42:56;;;;;;;43.28;15.75;;;;;;;;;;5056785;28;20021;-77
2023/05/10 05:45:22;;;;;;;55.45;17.30;;;12.50;99.90;;;;;;5056492;28;20031;-77
2023/05/10 05:47:47;;;;;;;45.58;16.77;;;12.50;99.90;;;;;;5054894;28;20021;-77
2023/05/10 05:50:13;;;;;;;43.63;16.20;;;12.50;99.90;;;;;;5056085;28;20075;-77
2023/05/10 05:52:39;;;;;;;46.65;16.75;;;12.50;99.90;;;;;;5056696;28;20040;-78
2023/05/10 05:55:04;;;;;;;41.60;14.82;;;12.50;99.90;;;;;;5057125;28;20029;-78
2023/05/10 05:57:30;;;;;;;43.88;15.18;;;12.50;99.90;;;;;;5054785;28;20132;-77
2023/05/10 05:59:56;;;;;;;39.40;13.90;;;12.60;99.90;;;;;;5056123;28;20052;-77
2023/05/10 06:02:21;;;;;;;36.75;14.25;;;12.60;99.90;;;;;;5055950;28;20032;-77
2023/05/10 06:04:47;;;;;;;33.30;13.00;;;12.70;99.90;;;;;;5054627;28;20025;-77
2023/05/10 06:07:12;;;;;;;38.10;13.35;;;12.80;99.90;;;;;;5056422;28;20029;-77
2023/05/10 06:09:38;;;;;;;35.33;11.95;;;12.80;99.90;;;;;;5056648;28;20029;-76
2023/05/10 06:12:06;;;;;;;27.40;10.23;;;12.90;99.90;;;;;;5057018;28;20033;-77
2023/05/10 06:14:32;;;;;;;27.40;9.75;;;13.00;99.90;;;;;;5055502;28;20025;-77
2023/05/10 06:16:59;;;;;;;22.13;7.90;;;13.20;99.90;;;;;;5056823;28;20056;-78
2023/05/10 06:19:26;;;;;;;16.02;6.70;;;13.20;99.90;;;;;;5055089;28;20021;-77
2023/05/10 06:21:52;;;;;;;28.10;8.40;;;;;;;;;;5054848;28;20498;-77
2023/05/10 06:24:17;;;;;;;16.10;6.90;;;13.20;99.90;;;;;;5055285;28;20032;-77
2023/05/10 06:26:43;;;;;;;19.35;6.70;;;13.10;99.90;;;;;;5055124;28;20025;-77
2023/05/10 06:29:11;;;;;;;14.13;6.93;;;13.10;99.90;;;;;;5055283;28;20056;-77
2023/05/10 06:31:37;;;;;;;17.52;6.50;;;13.00;99.90;;;;;;5055130;28;20041;-77
2023/05/10 06:34:03;;;;;;;16.48;6.65;;;13.00;99.90;;;;;;5056350;28;20021;-77
2023/05/10 06:36:28;;;;;;;20.42;7.10;;;13.00;99.90;;;;;;5054711;28;20474;-77
2023/05/10 06:38:54;;;;;;;17.13;7.45;;;13.00;99.90;;;;;;5056329;28;20481;-77
2023/05/10 06:41:20;;;;;;;15.20;5.25;;;13.10;99.90;;;;;;5056149;28;20021;-77
2023/05/10 06:43:46;;;;;;;14.57;6.20;;;13.10;99.90;;;;;;5056323;28;20107;-76
2023/05/10 06:46:11;;;;;;;15.15;4.75;;;13.20;99.90;;;;;;5056046;28;20049;-77
2023/05/10 06:48:37;;;;;;;12.82;5.38;;;13.20;99.90;;;;;;5055944;28;20051;-77
2023/05/10 06:51:03;;;;;;;13.23;5.47;;;13.30;99.90;;;;;;5056019;28;20036;-78
2023/05/10 06:53:28;;;;;;;12.68;5.70;;;13.30;99.90;;;;;;5056073;28;20029;-76
2023/05/10 06:55:54;;;;;;;14.85;5.47;;;13.30;99.90;;;;;;5054731;28;20021;-77
2023/05/10 06:58:19;;;;;;;16.35;7.00;;;13.40;99.90;;;;;;5055842;28;20020;-77
2023/05/10 07:00:46;;;;;;;20.02;5.38;;;13.40;99.90;;;;;;5055938;28;20021;-76
2023/05/10 07:03:12;;;;;;;14.63;5.57;;;13.40;99.90;;;;;;5056556;28;20049;-77
2023/05/10 07:05:37;;;;;;;11.38;4.57;;;13.50;99.90;;;;;;5055483;28;20066;-78
2023/05/10 07:08:03;;;;;;;14.82;5.32;;;14.60;99.90;;;;;;5055560;28;20037;-74
2023/05/10 07:10:29;;;;;;;11.63;4.78;;;13.50;99.90;;;;;;5056024;28;20033;-76
2023/05/10 07:12:55;;;;;;;12.02;5.30;;;13.60;99.90;;;;;;5055427;28;20021;-78
2023/05/10 07:15:20;;;;;;;12.80;4.85;;;13.70;99.90;;;;;;5054606;28;20471;-77
2023/05/10 07:17:46;;;;;;;14.63;5.03;;;13.90;99.90;;;;;;5055940;28;20025;-77
2023/05/10 07:20:12;;;;;;;9.50;4.03;;;13.90;99.90;;;;;;5055245;28;20021;-77
2023/05/10 07:22:37;;;;;;;11.32;4.20;;;14.00;99.90;;;;;;5056107;28;20025;-76
2023/05/10 07:25:03;;;;;;;9.73;4.28;;;14.00;99.90;;;;;;5055164;28;20029;-77
2023/05/10 07:27:29;;;;;;;11.00;5.20;;;14.00;99.90;;;;;;5055147;28;20029;-77
2023/05/10 07:29:56;;;;;;;13.70;5.05;;;14.00;99.90;;;;;;5055026;28;20021;-77
2023/05/10 07:32:21;;;;;;;11.60;4.60;;;14.20;99.90;;;;;;5055452;28;20029;-76
2023/05/10 07:34:47;;;;;;;9.63;4.38;;;14.00;99.90;;;;;;5055007;28;20025;-76
2023/05/10 07:37:13;;;;;;;10.18;4.85;;;;;;;;;;5054611;28;20056;-77
2023/05/10 07:39:39;;;;;;;10.70;3.75;;;14.10;99.90;;;;;;5055455;28;20028;-77
2023/05/10 07:42:05;;;;;;;12.00;4.22;;;14.10;99.90;;;;;;5053581;28;20365;-77
2023/05/10 07:44:31;;;;;;;9.90;3.97;;;14.00;99.90;;;;;;5054728;28;20027;-77
2023/05/10 07:46:56;;;;;;;10.18;3.80;;;14.00;99.90;;;;;;5054939;28;20535;-77
2023/05/10 07:49:23;;;;;;;10.77;3.30;;;14.00;99.90;;;;;;5054721;28;20092;-76
2023/05/10 07:51:49;;;;;;;13.45;4.15;;;14.00;99.90;;;;;;5054567;28;20067;-76
2023/05/10 07:54:15;;;;;;;10.88;3.65;;;14.00;99.90;;;;;;5053175;28;20021;-77
2023/05/10 07:56:45;;;;;;;12.13;4.45;;;14.00;99.90;;;;;;5054667;28;20040;-77
2023/05/10 07:59:15;;;;;;;8.73;3.20;;;14.00;99.90;;;;;;5054564;28;20013;-77
2023/05/10 08:01:41;;;;;;;8.75;4.07;;;14.10;99.90;;;;;;5053110;28;20025;-77
2023/05/10 08:04:07;;;;;;;9.50;3.97;;;14.00;99.90;;;;;;5053266;28;20037;-77
2023/05/10 08:06:32;;;;;;;8.77;3.88;;;14.00;99.90;;;;;;5054414;28;20100;-77
2023/05/10 08:08:58;;;;;;;8.80;3.63;;;14.00;99.90;;;;;;5054326;28;20365;-77
2023/05/10 08:11:24;;;;;;;13.82;3.90;;;14.00;99.90;;;;;;5055304;28;20403;-77
2023/05/10 08:13:50;;;;;;;9.63;3.92;;;14.10;99.90;;;;;;5055003;28;20376;-77
2023/05/10 08:16:16;;;;;;;9.35;3.75;;;14.10;99.90;;;;;;5054680;28;20025;-77
2023/05/10 08:18:43;;;;;;;17.50;4.60;;;14.30;99.90;;;;;;5053071;28;20100;-77
2023/05/10 08:21:11;;;;;;;8.07;4.00;;;14.50;99.90;;;;;;5054179;28;20017;-78
2023/05/10 08:23:39;;;;;;;9.23;4.28;;;14.60;99.90;;;;;;5054340;28;20028;-77
2023/05/10 08:26:05;;;;;;;9.13;3.95;;;14.70;99.90;;;;;;5053092;28;20063;-77
2023/05/10 08:28:30;;;;;;;10.25;3.47;;;14.80;99.90;;;;;;5054158;28;20029;-77
2023/05/10 08:30:56;;;;;;;10.75;3.78;;;14.90;99.90;;;;;;5052465;28;20463;-77
2023/05/10 08:33:22;;;;;;;9.55;4.30;;;15.20;99.90;;;;;;5053381;28;20071;-77
2023/05/10 08:35:47;;;;;;;9.35;3.53;;;15.00;99.90;;;;;;5053197;28;20018;-77
2023/05/10 08:38:13;;;;;;;7.40;3.60;;;15.00;99.90;;;;;;5054275;28;20025;-77
2023/05/10 08:40:42;;;;;;;9.35;4.07;;;15.00;99.90;;;;;;5054428;28;20028;-77
2023/05/10 08:43:10;;;;;;;9.30;3.67;;;14.90;99.90;;;;;;5054354;28;20123;-78
2023/05/10 08:45:41;;;;;;;10.38;3.78;;;14.90;99.90;;;;;;5052963;28;20464;-76
2023/05/10 08:48:09;;;;;;;8.52;3.35;;;14.90;99.90;;;;;;5054098;28;20021;-78
2023/05/10 08:50:43;;;;;;;12.30;3.60;;;14.80;99.90;;;;;;5053078;28;20052;-77
2023/05/10 08:53:11;;;;;;;7.03;3.13;;;14.80;99.90;;;;;;5054682;28;20489;-77
2023/05/10 08:55:38;;;;;;;13.30;3.80;;;14.80;99.90;;;;;;5054683;28;20028;-77
2023/05/10 08:58:07;;;;;;;8.93;3.75;;;14.70;99.90;;;;;;5053960;28;20029;-77
2023/05/10 09:00:33;;;;;;;10.18;3.33;;;14.50;99.90;;;;;;5052932;28;20021;-77
2023/05/10 09:03:00;;;;;;;9.15;3.83;;;15.10;99.90;;;;;;5054389;28;20087;-77
2023/05/10 09:05:26;;;;;;;9.43;3.58;;;14.60;99.90;;;;;;5054138;28;20017;-78
2023/05/10 09:07:51;;;;;;;13.23;3.78;;;14.60;99.90;;;;;;5054267;28;20029;-78
2023/05/10 09:10:17;;;;;;;9.10;3.85;;;14.60;99.90;;;;;;5052604;28;20025;-77
2023/05/10 09:12:45;;;;;;;9.93;3.70;;;14.90;99.90;;;;;;5052569;28;20025;-77
2023/05/10 09:15:11;;;;;;;7.20;3.72;;;14.50;99.90;;;;;;5053952;28;20025;-77
2023/05/10 09:17:40;;;;;;;9.13;3.90;;;14.50;99.90;;;;;;5053908;28;20493;-78
2023/05/10 09:20:06;;;;;;;6.75;3.13;;;14.50;99.90;;;;;;5053700;28;20167;-77
2023/05/10 09:22:32;;;;;;;6.93;3.08;;;14.60;99.90;;;;;;5053046;28;20025;-77
2023/05/10 09:25:14;;;;;;;11.30;3.67;;;14.70;99.90;;;;;;5054964;28;20539;-78
2023/05/10 09:27:44;;;;;;;9.50;2.97;;;14.80;99.90;;;;;;5053626;28;20483;-78
2023/05/10 09:30:15;;;;;;;8.95;2.95;;;15.10;99.90;;;;;;5052844;28;20041;-77
2023/05/10 09:32:43;;;;;;;6.88;3.28;;;15.30;99.90;;;;;;5052738;28;20531;-77
2023/05/10 09:35:12;;;;;;;8.82;2.92;;;15.20;99.90;;;;;;5053801;28;20009;-78
2023/05/10 09:37:42;;;;;;;5.35;2.72;;;15.40;99.90;;;;;;5055170;28;20028;-76
2023/05/10 09:40:11;;;;;;;6.47;2.78;;;15.60;99.90;;;;;;5057271;28;20032;-77
2023/05/10 09:42:37;;;;;;;7.10;3.10;;;15.70;99.90;;;;;;5057187;28;20088;-77
2023/05/10 09:45:04;;;;;;;5.80;2.78;;;15.90;99.90;;;;;;5056213;28;20052;-77
2023/05/10 09:47:32;;;;;;;6.88;2.00;;;15.90;99.90;;;;;;5056290;28;20542;-75
2023/05/10 09:50:02;;;;;;;5.35;1.95;;;15.90;99.90;;;;;;5057870;28;20057;-76
2023/05/10 09:52:28;;;;;;;4.15;1.33;;;16.80;99.90;;;;;;5057067;28;20024;-77
2023/05/10 09:54:54;;;;;;;5.65;1.88;;;16.00;99.90;;;;;;5056144;28;20036;-76
2023/05/10 09:57:22;;;;;;;4.38;1.55;;;15.90;99.90;;;;;;5056744;28;20539;-77
2023/05/10 09:59:51;;;;;;;1.80;1.08;;;15.90;99.90;;;;;;5055898;28;20059;-77
2023/05/10 10:02:17;;;;;;;5.25;1.45;;;16.00;99.90;;;;;;5055322;28;20024;-75
2023/05/10 10:04:43;;;;;;;2.42;1.27;;;16.00;99.90;;;;;;5057071;28;20033;-77
2023/05/10 10:07:09;;;;;;;3.60;1.30;;;16.00;99.90;;;;;;5056070;28;20059;-78
2023/05/10 10:09:35;;;;;;;3.40;1.17;;;16.10;99.90;;;;;;5057125;28;20021;-78
2023/05/10 10:12:01;;;;;;;3.15;0.77;;;16.10;99.90;;;;;;5055996;28;20029;-78
2023/05/10 10:14:28;;;;;;;4.38;0.50;;;16.00;99.90;;;;;;5057726;28;20032;-77
2023/05/10 10:16:54;;;;;;;3.20;0.98;;;16.00;99.90;;;;;;5057850;28;20025;-77
2023/05/10 10:19:20;;;;;;;3.35;0.70;;;16.10;99.90;;;;;;5056570;28;20025;-78
2023/05/10 10:21:47;;;;;;;2.88;0.60;;;16.10;99.90;;;;;;5057021;28;20125;-77
2023/05/10 10:24:13;;;;;;;3.92;1.40;;;15.80;99.90;;;;;;5056563;28;20488;-78
2023/05/10 10:26:40;;;;;;;3.15;0.52;;;15.80;99.90;;;;;;5056782;28;20071;-78
2023/05/10 10:29:20;;;;;;;3.63;0.82;;;15.60;99.90;;;;;;5056228;28;20045;-77
2023/05/10 10:31:52;;;;;;;1.98;0.63;;;15.50;99.90;;;;;;5056303;28;20060;-77
2023/05/10 10:34:27;;;;;;;3.33;0.90;;;15.70;99.90;;;;;;5056225;28;20055;-78
2023/05/10 10:36:54;;;;;;;4.47;0.90;;;15.70;99.90;;;;;;5056387;28;20104;-77
2023/05/10 10:39:20;;;;;;;2.80;0.88;;;16.00;99.90;;;;;;5056297;28;20096;-78
2023/05/10 10:41:54;;;;;;;5.15;1.55;;;15.80;99.90;;;;;;5054743;28;20072;-78
2023/05/10 10:44:24;;;;;;;2.83;1.27;;;15.90;99.90;;;;;;5056052;28;20052;-78
2023/05/10 10:47:07;;;;;;;3.88;1.08;;;16.10;99.90;;;;;;5056689;28;20049;-77
2023/05/10 10:49:43;;;;;;;2.38;0.90;;;16.10;99.90;;;;;;5055635;28;20044;-78
2023/05/10 10:52:35;;;;;;;4.15;1.23;;;16.20;99.90;;;;;;5056549;28;20455;-78
2023/05/10 10:55:01;;;;;;;5.07;1.33;;;16.20;99.90;;;;;;5054531;28;20027;-77
2023/05/10 10:57:31;;;;;;;4.53;2.03;;;16.50;99.90;;;;;;5055773;28;20115;-77
2023/05/10 11:00:31;;;;;;;3.50;1.40;;;16.50;99.90;;;;;;5055614;28;20013;-77
2023/05/10 11:03:00;;;;;;;5.07;1.85;;;16.70;99.90;;;;;;5054214;28;20542;-77
2023/05/10 11:05:28;;;;;;;4.10;1.70;;;17.00;99.90;;;;;;5056158;28;20024;-77
2023/05/10 11:07:55;;;;;;;2.08;1.25;;;17.20;99.90;;;;;;5055778;28;20021;-77
2023/05/10 11:10:25;;;;;;;3.10;0.80;;;17.50;99.90;;;;;;5055828;28;20365;-78
2023/05/10 11:13:05;;;;;;;3.13;0.55;;;17.60;99.90;;;;;;5055515;28;20028;-76
2023/05/10 11:15:36;;;;;;;3.83;0.65;;;17.60;99.90;;;;;;5055392;28;20028;-76
2023/05/10 11:18:24;;;;;;;3.50;1.17;;;17.50;99.90;;;;;;5055950;28;20407;-77
2023/05/10 11:20:55;;;;;;;3.10;0.80;;;17.40;99.90;;;;;;5055670;28;20025;-77
2023/05/10 11:23:21;;;;;;;1.70;0.45;;;17.30;99.90;;;;;;5055832;28;20728;-75
2023/05/10 11:25:48;;;;;;;2.55;0.82;;;17.10;99.90;;;;;;5053994;28;20388;-77
2023/05/10 11:28:18;;;;;;;1.33;0.40;;;17.40;99.90;;;;;;5055118;28;20037;-77
2023/05/10 11:30:44;;;;;;;2.28;0.57;;;16.80;99.90;;;;;;5055123;28;20037;-77
2023/05/10 11:33:16;;;;;;;2.45;0.35;;;16.60;99.90;;;;;;5055190;28;20383;-77
2023/05/10 11:35:42;;;;;;;3.05;0.50;;;16.50;99.90;;;;;;5055091;28;20028;-77
2023/05/10 11:38:09;;;;;;;2.47;0.50;;;16.90;99.90;;;;;;5055114;28;20029;-77
2023/05/10 11:40:35;;;;;;;3.03;0.50;;;17.50;99.90;;;;;;5055121;28;20531;-77
2023/05/10 11:43:01;;;;;;;1.48;0.40;;;16.60;99.90;;;;;;5053505;28;20111;-77
2023/05/10 11:45:28;;;;;;;2.38;0.57;;;17.30;99.90;;;;;;5054800;28;20032;-77
2023/05/10 11:47:55;;;;;;;1.42;0.40;;;17.70;99.90;;;;;;5055072;28;20020;-77
2023/05/10 11:50:21;;;;;;;4.30;0.38;;;17.90;99.90;;;;;;5053636;28;20063;-77
2023/05/10 11:52:51;;;;;;;2.22;0.30;;;18.40;99.90;;;;;;5054982;28;20029;-77
2023/05/10 11:55:17;;;;;;;5.57;1.05;;;18.80;99.90;;;;;;5055273;28;20124;-77
2023/05/10 11:57:45;;;;;;;1.60;0.45;;;19.10;99.90;;;;;;5054663;28;20037;-77
2023/05/10 12:00:12;;;;;;;1.23;0.35;;;19.20;99.90;;;;;;5055033;28;20021;-77
2023/05/10 12:02:37;;;;;;;2.08;0.32;;;19.50;99.90;;;;;;5055029;28;20036;-78
2023/05/10 12:05:05;;;;;;;1.38;0.10;;;20.00;99.90;;;;;;5054554;28;20484;-78
2023/05/10 12:07:30;;;;;;;0.68;0.30;;;20.10;99.90;;;;;;5054550;28;20021;-77
2023/05/10 12:10:11;;;;;;;3.35;0.38;;;20.00;99.90;;;;;;5054864;28;20027;-77
2023/05/10 12:12:42;;;;;;;1.23;0.20;;;19.90;99.90;;;;;;5053685;28;20032;-77
2023/05/10 12:15:22;;;;;;;0.68;0.20;;;19.40;99.90;;;;;;5053113;28;20052;-77
2023/05/10 12:17:49;;;;;;;0.60;0.30;;;19.20;99.90;;;;;;5054724;28;20055;-78
2023/05/10 12:20:19;;;;;;;2.65;0.50;;;18.80;99.90;;;;;;5055113;28;20024;-75
2023/05/10 12:22:56;;;;;;;0.50;0.20;;;18.50;99.90;;;;;;5053801;28;20091;-77
2023/05/10 12:25:24;;;;;;;1.95;0.35;;;18.10;99.90;;;;;;5054013;28;20025;-78
2023/05/10 12:27:57;;;;;;;2.40;0.20;;;18.10;99.90;;;;;;5053452;28;20075;-76
2023/05/10 12:30:27;;;;;;;0.82;0.20;;;17.90;99.90;;;;;;5054268;28;20029;-78
2023/05/10 12:32:54;;;;;;;3.33;0.70;;;17.40;99.90;;;;;;5055001;28;20031;-77
2023/05/10 12:35:23;;;;;;;4.50;0.73;;;17.40;99.90;;;;;;5054252;28;20431;-76
2023/05/10 12:37:51;;;;;;;2.17;0.63;;;17.20;99.90;;;;;;5054302;28;20021;-77
2023/05/10 12:40:16;;;;;;;5.65;0.82;;;16.90;99.90;;;;;;5054158;28;20027;-77
2023/05/10 12:42:44;;;;;;;11.40;2.67;;;17.00;99.90;;;;;;5054480;28;20104;-78